Time;durP1;ratioP1;P1;durP2;ratioP2;P2;SDS_P1;SDS_P2;PMS_P1;PMS_P2;Temp;Humidity;BMP_temperature;BMP_pressure;BME280_temperature;BME280_humidity;BME280_pressure;Samples;Min_cycle;Max_cycle;Signal;HPM_P1;HPM_P2
2021/11/11 00:00:23;;;;;;;18.02;13.20;;;23.50;38.20;;;;;;5040436;28;20058;-61
2021/11/11 00:02:50;;;;;;;16.25;12.27;;;23.50;38.20;;;;;;5063345;28;20468;-61
2021/11/11 00:05:18;;;;;;;18.15;12.27;;;23.50;38.20;;;;;;5062355;28;20489;-62
2021/11/11 00:07:45;;;;;;;15.77;12.45;;;23.40;38.10;;;;;;5062639;28;20551;-61
2021/11/11 00:10:14;;;;;;;16.13;12.32;;;23.50;38.20;;;;;;5046010;28;20052;-60
2021/11/11 00:12:42;;;;;;;16.80;12.82;;;23.40;38.10;;;;;;5062783;28;20464;-61
2021/11/11 00:15:11;;;;;;;15.43;12.07;;;23.50;38.20;;;;;;5062815;28;20094;-61
2021/11/11 00:17:39;;;;;;;16.10;12.65;;;23.50;38.20;;;;;;5063225;28;20161;-61
2021/11/11 00:20:09;;;;;;;16.60;12.18;;;23.50;38.20;;;;;;5051901;28;20502;-61
2021/11/11 00:22:37;;;;;;;14.98;11.68;;;23.50;38.20;;;;;;5061629;28;20108;-61
2021/11/11 00:25:05;;;;;;;15.45;11.82;;;23.40;38.20;;;;;;5062427;28;20079;-61
2021/11/11 00:27:33;;;;;;;15.20;11.52;;;23.40;38.70;;;;;;5063064;28;20745;-61
2021/11/11 00:30:00;;;;;;;13.82;11.10;;;23.40;38.20;;;;;;5037980;28;20365;-61
2021/11/11 00:32:27;;;;;;;15.65;11.75;;;23.40;38.20;;;;;;5042239;28;20045;-61
2021/11/11 00:34:55;;;;;;;15.32;11.18;;;23.40;38.20;;;;;;5042743;28;20049;-61
2021/11/11 00:37:22;;;;;;;15.80;12.00;;;23.40;38.20;;;;;;5040960;28;20080;-61
2021/11/11 00:39:50;;;;;;;12.00;10.50;;;23.40;38.20;;;;;;5035843;28;20084;-63
2021/11/11 00:42:18;;;;;;;15.05;11.82;;;23.40;38.20;;;;;;5062464;28;20052;-61
2021/11/11 00:44:48;;;;;;;14.60;11.15;;;23.40;38.20;;;;;;5050396;28;20126;-61
2021/11/11 00:47:16;;;;;;;15.95;11.80;;;23.40;38.20;;;;;;5042694;28;20067;-61
2021/11/11 00:49:44;;;;;;;14.77;11.15;;;23.40;38.20;;;;;;5036984;28;20489;-61
2021/11/11 00:52:12;;;;;;;15.75;11.88;;;23.40;38.10;;;;;;5042170;28;20359;-61
2021/11/11 00:54:41;;;;;;;16.60;10.63;;;23.40;38.10;;;;;;5042117;28;20044;-61
2021/11/11 00:57:09;;;;;;;13.10;10.30;;;23.40;38.10;;;;;;5041152;28;20061;-61
2021/11/11 00:59:38;;;;;;;13.70;10.90;;;23.40;38.10;;;;;;5043193;28;20052;-61
2021/11/11 01:02:08;;;;;;;14.90;11.50;;;23.40;38.10;;;;;;5042083;28;20052;-61
2021/11/11 01:04:38;;;;;;;12.73;10.30;;;23.30;38.10;;;;;;5042265;28;20534;-61
2021/11/11 01:07:07;;;;;;;14.73;10.85;;;23.30;38.20;;;;;;5041525;28;20053;-61
2021/11/11 01:09:35;;;;;;;15.50;11.15;;;23.30;38.20;;;;;;5032781;28;20138;-61
2021/11/11 01:12:04;;;;;;;13.50;10.80;;;23.30;38.80;;;;;;5044060;28;20379;-61
2021/11/11 01:14:32;;;;;;;13.27;9.93;;;23.30;38.30;;;;;;5042804;28;20308;-61
2021/11/11 01:16:59;;;;;;;14.50;11.27;;;23.30;38.30;;;;;;5045611;28;20111;-61
2021/11/11 01:19:27;;;;;;;13.23;10.63;;;23.30;38.20;;;;;;5045110;28;20539;-61
2021/11/11 01:21:55;;;;;;;15.13;11.50;;;23.30;38.20;;;;;;5064515;28;20109;-61
2021/11/11 01:24:22;;;;;;;13.60;10.63;;;23.30;38.20;;;;;;5066059;28;20555;-61
2021/11/11 01:26:49;;;;;;;13.75;10.65;;;23.30;38.20;;;;;;5066183;28;20072;-61
2021/11/11 01:29:16;;;;;;;15.20;11.23;;;23.30;38.20;;;;;;5044902;28;20053;-61
2021/11/11 01:31:44;;;;;;;14.27;10.75;;;23.30;38.10;;;;;;5045610;28;20183;-61
2021/11/11 01:34:11;;;;;;;13.43;10.45;;;23.30;38.10;;;;;;5045880;28;20144;-62
2021/11/11 01:36:38;;;;;;;12.85;10.20;;;23.30;38.10;;;;;;5045152;28;20053;-61
2021/11/11 01:39:07;;;;;;;12.27;10.07;;;23.30;38.10;;;;;;5036243;28;20049;-61
2021/11/11 01:41:34;;;;;;;12.15;9.68;;;23.30;38.10;;;;;;5044568;28;20060;-61
2021/11/11 01:44:01;;;;;;;12.35;9.70;;;23.30;38.20;;;;;;5045142;28;20057;-61
2021/11/11 01:46:29;;;;;;;14.02;10.45;;;23.30;38.20;;;;;;5045747;28;20167;-61
2021/11/11 01:48:57;;;;;;;13.95;10.77;;;23.30;38.20;;;;;;5037645;28;20422;-60
2021/11/11 01:51:24;;;;;;;12.73;10.15;;;23.30;38.10;;;;;;5042663;28;20053;-62
2021/11/11 01:53:51;;;;;;;13.75;10.43;;;23.30;38.10;;;;;;5045385;28;20102;-61
2021/11/11 01:56:21;;;;;;;15.80;10.52;;;23.30;38.10;;;;;;5045017;28;20103;-60
2021/11/11 01:58:49;;;;;;;13.07;9.60;;;23.30;38.10;;;;;;5046514;28;21749;-61
2021/11/11 02:01:18;;;;;;;11.88;9.65;;;23.30;38.10;;;;;;5044962;28;20460;-61
2021/11/11 02:03:46;;;;;;;12.27;9.85;;;23.30;38.10;;;;;;5043980;28;20187;-61
2021/11/11 02:06:13;;;;;;;13.07;9.70;;;23.30;38.10;;;;;;5044420;28;20144;-61
2021/11/11 02:08:40;;;;;;;12.45;10.00;;;23.30;38.10;;;;;;5037881;28;20439;-61
2021/11/11 02:11:08;;;;;;;12.65;9.55;;;23.30;38.10;;;;;;5058599;28;20110;-61
2021/11/11 02:13:35;;;;;;;11.85;9.73;;;23.30;38.10;;;;;;5063763;28;20186;-61
2021/11/11 02:16:02;;;;;;;11.63;9.68;;;23.30;38.10;;;;;;5063685;28;20053;-61
2021/11/11 02:18:30;;;;;;;11.73;9.38;;;23.30;38.10;;;;;;5060326;28;20049;-62
2021/11/11 02:20:57;;;;;;;11.88;9.73;;;23.30;38.10;;;;;;5041652;28;20114;-61
2021/11/11 02:23:24;;;;;;;11.85;9.40;;;23.30;38.10;;;;;;5042347;28;20041;-61
2021/11/11 02:25:52;;;;;;;9.43;8.43;;;23.20;38.10;;;;;;5043513;28;20060;-61
2021/11/11 02:28:20;;;;;;;12.35;9.32;;;23.20;38.10;;;;;;5045092;28;20052;-61
2021/11/11 02:30:50;;;;;;;11.05;8.98;;;23.30;38.10;;;;;;5053862;28;20048;-61
2021/11/11 02:33:26;;;;;;;11.32;8.88;;;23.20;38.10;;;;;;5064434;28;20167;-62
2021/11/11 02:35:54;;;;;;;10.52;9.10;;;23.20;38.10;;;;;;5064738;28;20096;-61
2021/11/11 02:38:22;;;;;;;13.32;10.32;;;23.20;38.10;;;;;;5054183;28;20044;-61
2021/11/11 02:40:49;;;;;;;12.13;9.15;;;23.20;38.10;;;;;;5058687;28;20521;-61
2021/11/11 02:43:17;;;;;;;10.68;8.93;;;23.20;38.20;;;;;;5063954;28;20494;-61
2021/11/11 02:45:47;;;;;;;11.60;9.20;;;23.20;38.10;;;;;;5064197;28;20360;-61
2021/11/11 02:48:19;;;;;;;10.40;8.68;;;23.20;38.00;;;;;;5059367;28;20990;-61
2021/11/11 02:50:48;;;;;;;10.25;8.73;;;23.30;38.00;;;;;;5057854;28;20083;-61
2021/11/11 02:53:16;;;;;;;10.23;8.60;;;23.30;38.00;;;;;;5063810;28;20068;-60
2021/11/11 02:55:44;;;;;;;10.75;8.98;;;23.30;37.90;;;;;;5064184;28;20342;-61
2021/11/11 02:58:12;;;;;;;10.20;8.70;;;23.30;37.90;;;;;;5055965;28;20053;-61
2021/11/11 03:00:47;;;;;;;11.65;8.75;;;23.30;37.80;;;;;;5038140;28;20506;-61
2021/11/11 03:03:15;;;;;;;12.93;8.90;;;23.30;37.80;;;;;;5043639;28;20140;-61
2021/11/11 03:05:42;;;;;;;11.20;8.15;;;23.30;37.80;;;;;;5044295;28;20060;-61
2021/11/11 03:08:10;;;;;;;10.80;8.60;;;23.30;37.80;;;;;;5039686;28;20060;-61
2021/11/11 03:10:40;;;;;;;8.73;7.82;;;23.30;37.80;;;;;;5037990;28;20060;-61
2021/11/11 03:13:09;;;;;;;10.13;8.57;;;23.30;38.30;;;;;;5043153;28;20460;-61
2021/11/11 03:15:37;;;;;;;8.50;7.63;;;23.30;37.80;;;;;;5043806;28;20052;-61
2021/11/11 03:18:04;;;;;;;8.93;7.40;;;23.30;37.80;;;;;;5038398;28;20300;-61
2021/11/11 03:20:32;;;;;;;8.88;7.55;;;23.30;37.80;;;;;;5043576;28;20049;-61
2021/11/11 03:22:59;;;;;;;9.73;8.05;;;23.30;37.80;;;;;;5043435;28;20080;-61
2021/11/11 03:25:29;;;;;;;10.95;8.82;;;23.30;37.70;;;;;;5043621;28;20091;-61
2021/11/11 03:27:57;;;;;;;8.95;7.72;;;23.30;37.70;;;;;;5039419;28;20565;-61
2021/11/11 03:30:27;;;;;;;10.40;8.23;;;23.30;37.70;;;;;;5045528;28;20350;-61
2021/11/11 03:32:56;;;;;;;9.83;7.63;;;23.30;37.70;;;;;;5042819;28;20057;-61
2021/11/11 03:35:24;;;;;;;10.70;8.57;;;23.30;37.70;;;;;;5042849;28;20320;-61
2021/11/11 03:37:53;;;;;;;10.52;8.25;;;23.30;37.70;;;;;;5042535;28;20531;-62
2021/11/11 03:40:29;;;;;;;9.35;7.80;;;23.30;37.70;;;;;;5035635;28;20099;-61
2021/11/11 03:42:58;;;;;;;10.00;7.88;;;23.30;37.70;;;;;;5042570;28;20502;-61
2021/11/11 03:45:26;;;;;;;9.02;7.60;;;23.30;37.70;;;;;;5043185;28;20041;-61
2021/11/11 03:47:54;;;;;;;9.57;7.90;;;23.30;37.60;;;;;;5040423;28;20122;-61
2021/11/11 03:50:23;;;;;;;9.65;7.60;;;23.30;37.60;;;;;;5047842;28;20448;-61
2021/11/11 03:52:51;;;;;;;10.77;7.60;;;23.30;37.60;;;;;;5063015;28;20535;-61
2021/11/11 03:55:23;;;;;;;11.35;8.40;;;23.30;37.60;;;;;;5062809;28;20496;-61
2021/11/11 03:57:53;;;;;;;11.93;7.63;;;23.30;37.60;;;;;;5062063;28;20052;-61
2021/11/11 04:00:21;;;;;;;10.60;7.68;;;23.30;37.60;;;;;;5052680;28;20052;-61
2021/11/11 04:02:49;;;;;;;9.98;7.10;;;23.30;37.60;;;;;;5062975;28;20059;-61
2021/11/11 04:05:16;;;;;;;8.73;7.28;;;23.30;37.50;;;;;;5062719;28;20478;-61
2021/11/11 04:07:44;;;;;;;8.68;7.00;;;23.40;37.50;;;;;;5061892;28;20501;-62
2021/11/11 04:10:12;;;;;;;9.15;8.00;;;23.40;37.50;;;;;;5038458;28;20057;-61
2021/11/11 04:12:56;;;;;;;9.48;8.02;;;23.40;37.50;;;;;;5042739;28;20148;-61
2021/11/11 04:15:23;;;;;;;12.05;8.07;;;23.40;37.40;;;;;;5042405;28;20044;-61
2021/11/11 04:17:50;;;;;;;9.35;7.43;;;23.40;37.40;;;;;;5041348;28;20494;-62
2021/11/11 04:20:17;;;;;;;9.27;7.35;;;23.40;37.40;;;;;;5046024;28;20545;-62
2021/11/11 04:22:45;;;;;;;7.90;6.57;;;23.40;37.40;;;;;;5043086;28;20441;-61
2021/11/11 04:25:17;;;;;;;8.27;7.22;;;23.40;37.40;;;;;;5041739;28;20555;-61
2021/11/11 04:27:51;;;;;;;10.18;7.85;;;23.40;37.40;;;;;;5042299;28;20052;-62
2021/11/11 04:30:28;;;;;;;9.35;7.25;;;23.40;37.40;;;;;;5028669;28;20053;-61
2021/11/11 04:32:56;;;;;;;7.80;6.63;;;23.40;37.40;;;;;;5029668;28;20045;-61
2021/11/11 04:35:23;;;;;;;10.32;7.28;;;23.40;37.40;;;;;;5032604;28;20131;-61
2021/11/11 04:38:06;;;;;;;9.13;6.93;;;23.40;37.40;;;;;;5041354;28;20284;-62
2021/11/11 04:40:50;;;;;;;8.68;7.13;;;23.30;37.40;;;;;;5034545;28;20048;-61
2021/11/11 04:43:35;;;;;;;8.48;6.93;;;23.30;37.40;;;;;;5022598;28;20061;-62
2021/11/11 04:46:26;;;;;;;10.07;7.82;;;23.30;37.40;;;;;;5021627;28;20135;-61
2021/11/11 04:49:10;;;;;;;9.18;7.47;;;23.40;37.50;;;;;;5026901;28;20052;-62
2021/11/11 05:03:02;;;;;;;8.38;6.95;;;23.40;37.50;;;;;;5066221;28;20052;-62
2021/11/11 05:05:31;;;;;;;8.02;6.22;;;23.30;37.40;;;;;;5064607;28;20529;-62
2021/11/11 05:07:58;;;;;;;9.38;7.15;;;23.40;37.50;;;;;;5058211;28;20041;-62
2021/11/11 05:10:26;;;;;;;9.00;6.72;;;23.30;37.40;;;;;;5036362;28;20061;-61
2021/11/11 05:12:57;;;;;;;11.05;6.55;;;23.40;37.50;;;;;;5024975;28;20150;-61
2021/11/11 05:15:25;;;;;;;8.57;6.75;;;23.30;37.40;;;;;;5025974;28;20099;-61
2021/11/11 05:17:52;;;;;;;7.68;6.85;;;23.30;37.40;;;;;;5025154;28;20162;-61
2021/11/11 05:20:20;;;;;;;7.50;6.28;;;23.40;37.50;;;;;;5036524;28;20631;-61
2021/11/11 05:22:49;;;;;;;9.85;7.00;;;23.40;37.50;;;;;;5039720;28;20488;-61
2021/11/11 05:25:17;;;;;;;7.88;7.07;;;23.30;37.40;;;;;;5045548;28;20049;-61
2021/11/11 05:27:45;;;;;;;8.35;6.82;;;23.40;37.40;;;;;;5045482;28;20080;-62
2021/11/11 05:30:14;;;;;;;7.20;6.35;;;23.40;37.30;;;;;;5044704;28;20087;-61
2021/11/11 05:32:41;;;;;;;7.88;6.50;;;23.40;37.30;;;;;;5065994;28;20052;-61
2021/11/11 05:35:10;;;;;;;8.93;6.55;;;23.40;37.20;;;;;;5051269;28;20124;-61
2021/11/11 05:37:38;;;;;;;7.43;6.25;;;23.40;37.20;;;;;;5034487;28;20103;-61
2021/11/11 05:40:07;;;;;;;9.85;6.47;;;23.40;37.10;;;;;;5038518;28;20077;-62
2021/11/11 05:42:35;;;;;;;7.90;6.43;;;23.40;37.10;;;;;;5043982;28;20049;-61
2021/11/11 05:45:04;;;;;;;7.70;6.18;;;23.40;37.10;;;;;;5044988;28;20667;-61
2021/11/11 05:47:31;;;;;;;7.35;6.03;;;23.50;37.20;;;;;;5044252;28;20053;-62
2021/11/11 05:49:59;;;;;;;7.32;6.10;;;23.50;37.20;;;;;;5035415;28;20061;-62
2021/11/11 05:52:26;;;;;;;8.40;6.43;;;23.50;37.20;;;;;;5044968;28;20056;-61
2021/11/11 05:54:53;;;;;;;7.78;6.95;;;23.40;37.10;;;;;;5045117;28;20045;-62
2021/11/11 05:57:20;;;;;;;7.18;5.60;;;23.40;37.10;;;;;;5042574;28;20040;-62
2021/11/11 05:59:48;;;;;;;7.60;5.68;;;23.50;37.20;;;;;;5035027;28;20445;-62
2021/11/11 06:02:16;;;;;;;7.03;5.70;;;23.40;37.10;;;;;;5043654;28;20095;-62
2021/11/11 06:04:43;;;;;;;8.30;6.72;;;23.50;37.20;;;;;;5042617;28;20656;-62
2021/11/11 06:07:11;;;;;;;7.85;6.38;;;23.50;37.20;;;;;;5041706;28;20076;-62
2021/11/11 06:09:38;;;;;;;7.45;6.32;;;23.50;37.10;;;;;;5037759;28;20052;-62
2021/11/11 06:12:07;;;;;;;6.97;6.25;;;23.50;37.00;;;;;;5046481;28;20060;-62
2021/11/11 06:14:34;;;;;;;6.85;6.15;;;23.50;36.90;;;;;;5043613;28;20143;-62
2021/11/11 06:17:05;;;;;;;6.70;5.53;;;23.50;36.80;;;;;;5042371;28;20045;-62
2021/11/11 06:19:37;;;;;;;6.93;5.50;;;23.50;36.70;;;;;;5038016;28;20249;-63
2021/11/11 06:22:05;;;;;;;7.03;5.72;;;23.50;36.70;;;;;;5066418;28;20058;-62
2021/11/11 06:24:33;;;;;;;6.93;5.72;;;23.50;36.60;;;;;;5040187;28;20059;-62
2021/11/11 06:27:00;;;;;;;6.22;5.28;;;23.60;36.70;;;;;;5042455;28;20115;-63
2021/11/11 06:29:27;;;;;;;6.85;5.20;;;23.60;36.50;;;;;;5033048;28;20049;-63
2021/11/11 06:31:55;;;;;;;7.57;5.72;;;23.60;36.40;;;;;;5037704;28;20094;-62
2021/11/11 06:34:36;;;;;;;7.03;5.47;;;23.70;36.30;;;;;;5036434;28;20045;-62
2021/11/11 06:37:03;;;;;;;6.68;5.32;;;23.70;36.10;;;;;;5040876;28;20110;-63
2021/11/11 06:39:30;;;;;;;7.20;6.07;;;23.80;36.00;;;;;;5025547;28;20119;-62
2021/11/11 06:41:58;;;;;;;6.88;5.47;;;23.80;35.90;;;;;;5036417;28;20049;-63
2021/11/11 06:44:25;;;;;;;6.72;5.00;;;23.90;35.80;;;;;;5039182;28;20551;-62
2021/11/11 06:46:52;;;;;;;6.68;5.43;;;23.90;35.60;;;;;;5038127;28;20151;-63
2021/11/11 06:49:20;;;;;;;5.43;4.90;;;24.00;35.50;;;;;;5028884;28;20072;-63
2021/11/11 06:51:48;;;;;;;7.10;5.47;;;24.00;35.30;;;;;;5034564;28;20103;-61
2021/11/11 06:54:15;;;;;;;6.28;4.95;;;24.10;35.40;;;;;;5036098;28;20494;-62
2021/11/11 06:56:42;;;;;;;7.30;5.15;;;24.20;36.00;;;;;;5034172;28;20463;-63
2021/11/11 06:59:09;;;;;;;6.47;4.47;;;24.20;36.20;;;;;;5025999;28;20045;-62
2021/11/11 07:01:37;;;;;;;5.75;5.15;;;24.30;36.80;;;;;;5032607;28;20053;-63
2021/11/11 07:04:05;;;;;;;6.63;5.28;;;24.40;36.20;;;;;;5036410;28;20088;-62
2021/11/11 07:06:32;;;;;;;8.88;5.13;;;24.50;35.90;;;;;;5039683;28;20111;-61
2021/11/11 07:09:00;;;;;;;6.03;5.18;;;24.50;35.70;;;;;;5025048;28;20049;-60
2021/11/11 07:11:27;;;;;;;6.28;4.97;;;24.60;35.80;;;;;;5035085;28;20539;-64
2021/11/11 07:13:54;;;;;;;6.50;5.43;;;24.70;35.80;;;;;;5037351;28;20056;-60
2021/11/11 07:16:23;;;;;;;9.73;4.95;;;24.80;35.90;;;;;;5038919;28;20045;-60
2021/11/11 07:18:50;;;;;;;15.57;5.13;;;24.90;35.80;;;;;;5031069;28;20045;-61
2021/11/11 07:21:18;;;;;;;6.18;4.60;;;24.90;35.30;;;;;;5029714;28;20052;-61
2021/11/11 07:23:45;;;;;;;7.07;4.90;;;24.90;35.10;;;;;;5033674;28;20053;-62
2021/11/11 07:26:12;;;;;;;8.63;5.00;;;25.00;35.10;;;;;;5032973;28;20045;-61
2021/11/11 07:28:39;;;;;;;9.23;5.18;;;25.00;35.10;;;;;;5028915;28;20049;-62
2021/11/11 07:31:07;;;;;;;7.28;4.97;;;25.00;35.10;;;;;;5033798;28;20410;-62
2021/11/11 07:33:34;;;;;;;7.90;5.18;;;25.00;35.00;;;;;;5033377;28;20486;-62
2021/11/11 07:36:03;;;;;;;7.72;5.03;;;24.90;34.90;;;;;;5033907;28;20102;-62
2021/11/11 07:38:31;;;;;;;7.63;5.30;;;24.90;35.10;;;;;;5028311;28;20044;-63
2021/11/11 07:40:58;;;;;;;5.20;4.63;;;24.90;35.20;;;;;;5028958;28;20053;-61
2021/11/11 07:43:26;;;;;;;6.10;4.65;;;24.90;35.20;;;;;;5032929;28;20098;-62
2021/11/11 07:45:53;;;;;;;7.40;5.35;;;24.90;35.40;;;;;;5036843;28;20061;-61
2021/11/11 07:48:21;;;;;;;9.60;5.57;;;24.90;35.40;;;;;;5032859;28;20480;-61
2021/11/11 07:50:48;;;;;;;4.57;4.00;;;24.90;35.50;;;;;;5029781;28;20551;-61
2021/11/11 07:53:15;;;;;;;6.25;5.07;;;24.90;35.50;;;;;;5034347;28;20114;-61
2021/11/11 07:55:43;;;;;;;5.43;4.03;;;24.90;35.50;;;;;;5032125;28;20053;-61
2021/11/11 07:58:11;;;;;;;5.45;4.80;;;24.90;35.50;;;;;;5033959;28;20059;-61
2021/11/11 08:00:39;;;;;;;7.07;4.53;;;24.90;35.40;;;;;;5032422;28;20125;-62
2021/11/11 08:03:07;;;;;;;5.00;4.50;;;24.90;35.70;;;;;;5038048;28;20125;-66
2021/11/11 08:05:35;;;;;;;6.35;5.00;;;24.90;35.70;;;;;;5029475;28;20566;-63
2021/11/11 08:08:03;;;;;;;5.50;4.38;;;24.80;35.60;;;;;;5031365;28;20113;-63
2021/11/11 08:10:30;;;;;;;5.10;4.60;;;24.90;35.70;;;;;;5026421;28;20106;-64
2021/11/11 08:12:57;;;;;;;5.00;4.50;;;24.90;35.70;;;;;;5034258;28;20045;-62
2021/11/11 08:15:25;;;;;;;6.05;4.47;;;24.90;35.60;;;;;;5035585;28;20106;-63
2021/11/11 08:17:54;;;;;;;5.50;4.65;;;24.90;35.50;;;;;;5030694;28;20049;-63
2021/11/11 08:20:21;;;;;;;6.57;5.00;;;24.90;35.50;;;;;;5025719;28;20122;-64
2021/11/11 08:22:49;;;;;;;4.72;4.18;;;24.90;35.60;;;;;;5036258;28;20098;-64
2021/11/11 08:25:18;;;;;;;5.47;4.30;;;24.90;35.50;;;;;;5034075;28;20060;-64
2021/11/11 08:27:49;;;;;;;4.40;4.00;;;24.90;35.50;;;;;;5033120;28;20045;-63
2021/11/11 08:30:19;;;;;;;4.63;4.20;;;24.90;35.50;;;;;;5019668;28;20182;-64
2021/11/11 08:32:49;;;;;;;4.75;4.35;;;24.90;35.60;;;;;;5052213;28;20057;-63
2021/11/11 08:35:17;;;;;;;6.40;4.05;;;24.90;35.60;;;;;;5036140;28;20056;-63
2021/11/11 08:37:46;;;;;;;5.70;4.32;;;24.90;35.50;;;;;;5036983;28;20457;-65
2021/11/11 08:40:16;;;;;;;5.57;4.55;;;24.90;35.60;;;;;;5022137;28;20045;-63
2021/11/11 08:42:46;;;;;;;6.57;4.07;;;24.90;35.60;;;;;;5037479;28;20068;-63
2021/11/11 08:45:13;;;;;;;4.50;4.07;;;24.90;35.80;;;;;;5035070;28;20088;-62
2021/11/11 08:47:40;;;;;;;6.75;4.50;;;24.90;35.80;;;;;;5035416;28;20110;-62
2021/11/11 08:50:11;;;;;;;6.00;4.63;;;24.90;35.90;;;;;;5019544;28;20111;-64
2021/11/11 08:52:44;;;;;;;5.32;4.20;;;25.00;35.80;;;;;;5037399;28;20060;-61
2021/11/11 08:55:17;;;;;;;7.32;4.63;;;25.00;35.70;;;;;;5039877;28;20490;-65
2021/11/11 08:57:45;;;;;;;8.90;4.68;;;25.00;35.60;;;;;;5031522;28;20048;-65
2021/11/11 09:00:19;;;;;;;8.52;4.50;;;25.00;35.50;;;;;;5021921;28;20106;-65
2021/11/11 09:02:49;;;;;;;6.65;4.85;;;25.00;35.70;;;;;;5034263;28;20049;-64
2021/11/11 09:05:18;;;;;;;6.82;5.00;;;25.00;35.80;;;;;;5032774;28;20050;-63
2021/11/11 09:07:47;;;;;;;6.30;4.68;;;25.00;35.60;;;;;;5034216;28;20044;-64
2021/11/11 09:10:18;;;;;;;4.65;4.25;;;25.00;35.80;;;;;;5022275;28;20053;-64
2021/11/11 09:12:47;;;;;;;5.10;4.45;;;25.10;36.00;;;;;;5037204;28;20049;-64
2021/11/11 09:15:16;;;;;;;4.95;4.45;;;25.10;36.20;;;;;;5040472;28;20077;-63
2021/11/11 09:17:44;;;;;;;9.65;5.35;;;25.10;36.10;;;;;;5034842;28;20056;-65
2021/11/11 09:20:13;;;;;;;7.53;5.43;;;25.10;36.00;;;;;;5020717;28;20067;-64
2021/11/11 09:22:41;;;;;;;4.97;4.43;;;25.10;36.00;;;;;;5036839;28;20046;-63
2021/11/11 09:25:10;;;;;;;8.40;5.07;;;25.10;36.00;;;;;;5035765;28;20449;-63
2021/11/11 09:27:40;;;;;;;5.03;4.50;;;25.20;36.10;;;;;;5053066;28;20073;-64
2021/11/11 09:30:12;;;;;;;5.07;4.47;;;25.20;36.10;;;;;;5021895;28;20045;-63
2021/11/11 09:32:41;;;;;;;6.40;4.40;;;25.20;36.10;;;;;;5037756;28;20293;-63
2021/11/11 09:35:09;;;;;;;5.45;4.72;;;25.30;36.10;;;;;;5039340;28;20037;-64
2021/11/11 09:37:37;;;;;;;5.38;4.88;;;25.30;36.10;;;;;;5042898;28;20491;-65
2021/11/11 09:40:07;;;;;;;4.93;4.43;;;25.30;35.90;;;;;;5025228;28;20053;-64
2021/11/11 09:42:40;;;;;;;6.40;4.75;;;25.40;35.80;;;;;;5040631;28;20457;-65
2021/11/11 09:45:11;;;;;;;8.25;5.07;;;25.40;35.70;;;;;;5040686;28;20123;-64
2021/11/11 09:47:38;;;;;;;5.60;4.70;;;25.40;35.60;;;;;;5041604;28;20099;-64
2021/11/11 09:50:07;;;;;;;5.97;4.90;;;25.40;35.60;;;;;;5023394;28;20111;-63
2021/11/11 09:52:35;;;;;;;6.82;4.80;;;25.40;35.70;;;;;;5035635;28;20090;-64
2021/11/11 10:00:37;;;;;;;8.45;4.88;;;25.40;35.40;;;;;;5029161;28;20053;-64
2021/11/11 10:03:06;;;;;;;6.00;4.85;;;25.40;35.40;;;;;;5042524;28;20549;-65
2021/11/11 10:05:33;;;;;;;6.00;4.97;;;25.40;35.40;;;;;;5045171;28;20076;-63
2021/11/11 10:08:05;;;;;;;10.25;5.32;;;25.40;35.60;;;;;;5032111;28;20095;-64
2021/11/11 10:10:37;;;;;;;6.03;4.88;;;25.40;35.70;;;;;;5037123;28;20088;-69
2021/11/11 10:13:15;;;;;;;6.97;4.68;;;25.40;35.80;;;;;;5038676;28;20041;-63
2021/11/11 10:16:14;;;;;;;6.40;4.63;;;25.40;36.10;;;;;;5039927;28;20057;-63
2021/11/11 10:19:01;;;;;;;4.97;4.57;;;25.50;36.00;;;;;;5021112;28;20557;-64
2021/11/11 10:21:52;;;;;;;6.93;5.05;;;25.50;36.10;;;;;;5019561;28;20119;-62
2021/11/11 10:24:45;;;;;;;5.47;4.57;;;25.50;35.90;;;;;;5021482;28;20453;-64
2021/11/11 10:27:24;;;;;;;5.95;5.35;;;25.50;35.70;;;;;;5023052;28;20079;-63
2021/11/11 10:30:15;;;;;;;11.30;4.60;;;25.60;35.60;;;;;;5007882;28;20110;-62
2021/11/11 10:33:07;;;;;;;7.38;5.15;;;25.60;35.50;;;;;;5024408;28;20048;-65
2021/11/11 10:35:38;;;;;;;5.50;4.93;;;25.60;35.50;;;;;;5021286;28;20048;-61
2021/11/11 10:38:15;;;;;;;5.28;4.55;;;25.60;35.40;;;;;;5022126;28;20131;-62
2021/11/11 10:40:45;;;;;;;9.80;4.90;;;25.60;35.40;;;;;;5012780;28;20048;-62
2021/11/11 10:43:18;;;;;;;5.63;5.00;;;25.60;35.40;;;;;;5025189;28;20060;-64
2021/11/11 10:45:51;;;;;;;6.00;5.18;;;25.70;35.50;;;;;;5020107;28;20327;-60
2021/11/11 10:48:23;;;;;;;7.43;6.30;;;25.70;35.30;;;;;;5010896;28;20051;-63
2021/11/11 10:50:54;;;;;;;8.20;5.40;;;25.70;35.30;;;;;;5012096;28;20512;-61
2021/11/11 10:53:26;;;;;;;6.18;5.45;;;25.70;35.30;;;;;;5020818;28;20052;-61
2021/11/11 10:55:58;;;;;;;7.10;5.47;;;25.70;35.10;;;;;;5021282;28;20053;-62
2021/11/11 10:58:28;;;;;;;7.97;5.57;;;25.70;35.10;;;;;;5014075;28;22410;-63
2021/11/11 11:00:56;;;;;;;;;;;25.70;35.00;;;;;;5014272;28;20103;-62
2021/11/11 11:03:36;;;;;;;7.47;5.60;;;25.70;34.90;;;;;;5030324;28;20520;-62
2021/11/11 11:06:08;;;;;;;7.77;5.73;;;25.70;34.80;;;;;;5025220;28;20044;-63
2021/11/11 11:08:51;;;;;;;6.90;5.60;;;25.70;34.70;;;;;;5015243;28;20080;-61
2021/11/11 11:11:34;;;;;;;8.13;5.65;;;25.70;34.70;;;;;;5014689;28;20079;-60
2021/11/11 11:14:11;;;;;;;6.68;4.97;;;25.70;34.60;;;;;;5022963;28;20434;-61
2021/11/11 11:16:39;;;;;;;8.10;5.82;;;25.70;34.60;;;;;;5023225;28;20045;-61
2021/11/11 11:19:12;;;;;;;7.72;5.72;;;25.70;34.50;;;;;;5017177;28;20576;-61
2021/11/11 11:21:44;;;;;;;8.65;5.50;;;25.70;34.40;;;;;;5019556;28;20048;-60
2021/11/11 11:24:17;;;;;;;6.53;5.63;;;25.70;34.40;;;;;;5021641;28;20071;-63
2021/11/11 11:26:53;;;;;;;6.00;5.40;;;25.70;34.50;;;;;;5019478;28;20486;-62
2021/11/11 11:29:32;;;;;;;13.98;6.80;;;25.70;34.60;;;;;;4999699;28;20054;-61
2021/11/11 11:32:07;;;;;;;7.45;5.95;;;25.70;34.50;;;;;;5009903;28;20076;-61
2021/11/11 11:34:50;;;;;;;5.78;5.28;;;25.60;34.60;;;;;;5021623;28;20509;-62
2021/11/11 11:37:21;;;;;;;7.05;5.88;;;25.60;34.60;;;;;;5020797;28;20045;-62
2021/11/11 11:39:53;;;;;;;6.95;5.90;;;25.70;34.70;;;;;;5001586;28;20048;-61
2021/11/11 11:42:24;;;;;;;8.27;6.32;;;25.70;34.70;;;;;;5016113;28;20091;-62
2021/11/11 11:44:57;;;;;;;8.65;6.35;;;25.70;34.60;;;;;;5024819;28;20049;-61
2021/11/11 11:47:36;;;;;;;7.72;6.38;;;25.60;34.50;;;;;;5016899;28;20506;-62
2021/11/11 11:50:23;;;;;;;7.15;6.43;;;25.60;34.50;;;;;;5005833;28;20056;-61
2021/11/11 11:53:01;;;;;;;7.75;6.20;;;25.60;34.40;;;;;;5032190;28;20076;-62
2021/11/11 11:55:39;;;;;;;7.00;6.18;;;25.60;34.40;;;;;;5020819;28;21133;-62
2021/11/11 11:58:12;;;;;;;7.65;6.00;;;25.60;34.50;;;;;;5037362;28;20122;-64
2021/11/11 12:03:47;;;;;;;7.03;5.55;;;25.60;34.60;;;;;;5017238;28;20041;-62
2021/11/11 12:06:43;;;;;;;9.25;6.32;;;25.60;34.80;;;;;;5018080;28;20077;-64
2021/11/11 12:09:40;;;;;;;8.95;6.25;;;25.60;34.90;;;;;;5005444;28;21061;-65
2021/11/11 12:15:27;;;;;;;8.35;6.18;;;25.60;35.00;;;;;;5018069;28;20052;-64
2021/11/11 12:18:30;;;;;;;7.60;5.82;;;25.70;35.10;;;;;;5019350;28;20061;-63
2021/11/11 12:34:12;;;;;;;11.25;7.38;;;25.70;35.30;;;;;;5004879;28;21139;-65
2021/11/11 12:38:35;;;;;;;7.65;6.82;;;25.70;35.00;;;;;;5006487;28;20044;-61
2021/11/11 12:41:12;;;;;;;13.10;9.50;;;25.70;34.70;;;;;;5004632;28;20437;-61
2021/11/11 12:43:39;;;;;;;8.25;6.95;;;25.60;34.20;;;;;;5009775;28;20057;-62
2021/11/11 12:46:26;;;;;;;9.15;6.97;;;25.60;34.60;;;;;;5008463;28;20672;-63
2021/11/11 12:49:24;;;;;;;7.85;6.22;;;25.60;34.90;;;;;;4998347;28;20052;-63
2021/11/11 12:52:22;;;;;;;10.73;7.65;;;25.50;35.00;;;;;;5005828;28;20244;-65
2021/11/11 12:54:51;;;;;;;9.40;6.60;;;25.50;35.20;;;;;;5011670;28;20057;-64
2021/11/11 12:57:19;;;;;;;11.88;6.93;;;25.50;35.40;;;;;;5010444;28;20050;-63
2021/11/11 12:59:48;;;;;;;10.52;6.32;;;25.50;35.60;;;;;;4997404;28;20045;-63
2021/11/11 13:02:16;;;;;;;10.35;6.93;;;25.50;35.70;;;;;;5007013;28;20469;-63
2021/11/11 13:04:58;;;;;;;9.13;7.35;;;25.50;35.90;;;;;;5010204;28;20156;-62
2021/11/11 13:07:33;;;;;;;10.70;7.78;;;25.50;35.90;;;;;;5009871;28;20049;-63
2021/11/11 13:10:15;;;;;;;9.70;7.18;;;25.50;35.80;;;;;;5001228;28;20049;-64
2021/11/11 13:12:43;;;;;;;9.98;6.53;;;25.50;35.80;;;;;;5024816;28;20110;-62
2021/11/11 13:15:13;;;;;;;10.60;6.70;;;25.50;35.80;;;;;;5026576;28;20099;-63
2021/11/11 13:17:48;;;;;;;11.52;6.68;;;25.50;35.80;;;;;;5026245;28;20551;-63
2021/11/11 13:20:21;;;;;;;8.07;6.68;;;25.50;35.80;;;;;;5011782;28;20387;-62
2021/11/11 13:23:05;;;;;;;11.07;7.28;;;25.50;35.70;;;;;;5020688;28;20049;-62
2021/11/11 13:26:09;;;;;;;8.63;7.47;;;25.50;35.70;;;;;;5022652;28;20106;-63
2021/11/11 13:29:09;;;;;;;8.02;6.57;;;25.50;35.70;;;;;;5013644;28;20056;-63
2021/11/11 13:58:41;;;;;;;8.60;7.40;;;25.40;35.50;;;;;;5021400;28;20052;-63
2021/11/11 15:15:17;;;;;;;11.27;8.65;;;25.40;35.90;;;;;;5022576;28;20552;-61
2021/11/11 15:17:31;;;;;;;10.75;8.32;;;25.40;35.90;;;;;;5018471;28;20049;-60
2021/11/11 15:59:51;;;;;;;12.13;9.65;;;25.10;35.60;;;;;;5073692;28;20040;-61